sensor_id;sensor_type;location;lat;lon;timestamp;P1;durP1;ratioP1;P2;durP2;ratioP2
82783;SDS011;72520;55.762;37.780;2024-03-02T00:02:15;50.08;;;21.80;;
82783;SDS011;72520;55.762;37.780;2024-03-02T00:05:18;48.22;;;19.75;;
82783;SDS011;72520;55.762;37.780;2024-03-02T00:08:22;48.45;;;19.67;;
82783;SDS011;72520;55.762;37.780;2024-03-02T00:11:26;60.08;;;22.42;;
82783;SDS011;72520;55.762;37.780;2024-03-02T00:14:31;46.38;;;20.38;;
82783;SDS011;72520;55.762;37.780;2024-03-02T00:17:39;47.90;;;21.52;;
82783;SDS011;72520;55.762;37.780;2024-03-02T00:20:41;50.40;;;21.25;;
82783;SDS011;72520;55.762;37.780;2024-03-02T00:23:44;51.95;;;21.55;;
82783;SDS011;72520;55.762;37.780;2024-03-02T00:26:46;47.75;;;20.85;;
82783;SDS011;72520;55.762;37.780;2024-03-02T00:29:52;47.35;;;20.20;;
82783;SDS011;72520;55.762;37.780;2024-03-02T00:32:54;49.45;;;20.65;;
82783;SDS011;72520;55.762;37.780;2024-03-02T00:35:57;53.10;;;22.77;;
82783;SDS011;72520;55.762;37.780;2024-03-02T00:39:00;50.95;;;21.60;;
82783;SDS011;72520;55.762;37.780;2024-03-02T00:42:02;49.50;;;21.27;;
82783;SDS011;72520;55.762;37.780;2024-03-02T00:45:07;49.38;;;21.45;;
82783;SDS011;72520;55.762;37.780;2024-03-02T00:48:10;46.63;;;20.67;;
82783;SDS011;72520;55.762;37.780;2024-03-02T00:51:13;54.17;;;21.02;;
82783;SDS011;72520;55.762;37.780;2024-03-02T00:54:15;54.85;;;21.25;;
82783;SDS011;72520;55.762;37.780;2024-03-02T00:57:21;47.83;;;20.75;;
82783;SDS011;72520;55.762;37.780;2024-03-02T01:00:27;54.22;;;20.80;;
82783;SDS011;72520;55.762;37.780;2024-03-02T01:03:30;55.40;;;22.17;;
82783;SDS011;72520;55.762;37.780;2024-03-02T01:06:34;54.45;;;23.50;;
82783;SDS011;72520;55.762;37.780;2024-03-02T01:09:36;49.78;;;21.95;;
82783;SDS011;72520;55.762;37.780;2024-03-02T01:12:38;47.70;;;20.70;;
82783;SDS011;72520;55.762;37.780;2024-03-02T01:15:47;56.65;;;22.60;;
82783;SDS011;72520;55.762;37.780;2024-03-02T01:18:50;60.15;;;22.30;;
82783;SDS011;72520;55.762;37.780;2024-03-02T01:21:53;50.78;;;20.10;;
82783;SDS011;72520;55.762;37.780;2024-03-02T01:24:58;48.97;;;20.85;;
82783;SDS011;72520;55.762;37.780;2024-03-02T01:28:00;48.05;;;21.05;;
82783;SDS011;72520;55.762;37.780;2024-03-02T01:31:06;53.58;;;20.38;;
82783;SDS011;72520;55.762;37.780;2024-03-02T01:34:11;47.03;;;21.70;;
82783;SDS011;72520;55.762;37.780;2024-03-02T01:37:13;49.55;;;21.48;;
82783;SDS011;72520;55.762;37.780;2024-03-02T01:40:16;50.67;;;21.48;;
82783;SDS011;72520;55.762;37.780;2024-03-02T01:43:18;51.35;;;22.08;;
82783;SDS011;72520;55.762;37.780;2024-03-02T01:46:22;52.70;;;21.40;;
82783;SDS011;72520;55.762;37.780;2024-03-02T01:49:27;45.05;;;21.20;;
82783;SDS011;72520;55.762;37.780;2024-03-02T01:52:32;49.88;;;20.85;;
82783;SDS011;72520;55.762;37.780;2024-03-02T01:55:35;51.78;;;21.15;;
82783;SDS011;72520;55.762;37.780;2024-03-02T01:58:37;60.28;;;23.42;;
82783;SDS011;72520;55.762;37.780;2024-03-02T02:01:40;50.90;;;21.33;;
82783;SDS011;72520;55.762;37.780;2024-03-02T02:04:43;52.60;;;21.02;;
82783;SDS011;72520;55.762;37.780;2024-03-02T02:07:49;50.17;;;21.95;;
82783;SDS011;72520;55.762;37.780;2024-03-02T02:10:55;47.53;;;21.88;;
82783;SDS011;72520;55.762;37.780;2024-03-02T02:14:00;52.35;;;21.88;;
82783;SDS011;72520;55.762;37.780;2024-03-02T02:17:04;51.83;;;21.50;;
82783;SDS011;72520;55.762;37.780;2024-03-02T02:20:07;52.78;;;20.98;;
82783;SDS011;72520;55.762;37.780;2024-03-02T02:23:11;47.08;;;20.80;;
82783;SDS011;72520;55.762;37.780;2024-03-02T02:26:16;49.45;;;23.52;;
82783;SDS011;72520;55.762;37.780;2024-03-02T02:29:18;52.20;;;21.05;;
82783;SDS011;72520;55.762;37.780;2024-03-02T02:32:20;53.10;;;22.17;;
82783;SDS011;72520;55.762;37.780;2024-03-02T02:35:22;51.22;;;21.52;;
82783;SDS011;72520;55.762;37.780;2024-03-02T02:38:27;50.05;;;21.42;;
82783;SDS011;72520;55.762;37.780;2024-03-02T02:41:34;51.78;;;22.80;;
82783;SDS011;72520;55.762;37.780;2024-03-02T02:44:37;56.08;;;23.27;;
82783;SDS011;72520;55.762;37.780;2024-03-02T02:47:39;54.80;;;23.00;;
82783;SDS011;72520;55.762;37.780;2024-03-02T02:50:41;50.85;;;22.13;;
82783;SDS011;72520;55.762;37.780;2024-03-02T02:53:48;50.42;;;21.20;;
82783;SDS011;72520;55.762;37.780;2024-03-02T02:56:50;53.92;;;22.67;;
82783;SDS011;72520;55.762;37.780;2024-03-02T02:59:57;53.83;;;22.45;;
82783;SDS011;72520;55.762;37.780;2024-03-02T03:02:59;53.42;;;23.00;;
82783;SDS011;72520;55.762;37.780;2024-03-02T03:06:04;55.88;;;22.60;;
82783;SDS011;72520;55.762;37.780;2024-03-02T03:09:07;60.65;;;22.77;;
82783;SDS011;72520;55.762;37.780;2024-03-02T03:12:11;49.28;;;21.60;;
82783;SDS011;72520;55.762;37.780;2024-03-02T03:15:13;62.45;;;24.02;;
82783;SDS011;72520;55.762;37.780;2024-03-02T03:18:17;49.97;;;21.67;;
82783;SDS011;72520;55.762;37.780;2024-03-02T03:21:19;50.70;;;22.15;;
82783;SDS011;72520;55.762;37.780;2024-03-02T03:24:26;56.67;;;22.25;;
82783;SDS011;72520;55.762;37.780;2024-03-02T03:27:28;49.92;;;22.45;;
82783;SDS011;72520;55.762;37.780;2024-03-02T03:30:30;43.67;;;20.33;;
82783;SDS011;72520;55.762;37.780;2024-03-02T03:33:32;49.92;;;21.95;;
82783;SDS011;72520;55.762;37.780;2024-03-02T03:36:34;51.25;;;23.45;;
82783;SDS011;72520;55.762;37.780;2024-03-02T03:39:39;56.75;;;24.33;;
82783;SDS011;72520;55.762;37.780;2024-03-02T03:42:44;55.03;;;24.27;;
82783;SDS011;72520;55.762;37.780;2024-03-02T03:48:49;56.95;;;25.60;;
82783;SDS011;72520;55.762;37.780;2024-03-02T03:51:56;63.85;;;25.15;;
82783;SDS011;72520;55.762;37.780;2024-03-02T03:54:59;64.68;;;26.13;;
82783;SDS011;72520;55.762;37.780;2024-03-02T03:58:04;69.95;;;29.38;;
82783;SDS011;72520;55.762;37.780;2024-03-02T04:01:08;59.85;;;28.33;;
82783;SDS011;72520;55.762;37.780;2024-03-02T04:04:11;69.60;;;29.45;;
82783;SDS011;72520;55.762;37.780;2024-03-02T04:07:13;60.95;;;28.08;;
82783;SDS011;72520;55.762;37.780;2024-03-02T04:10:16;60.47;;;26.77;;
82783;SDS011;72520;55.762;37.780;2024-03-02T04:13:21;61.63;;;27.63;;
82783;SDS011;72520;55.762;37.780;2024-03-02T04:16:26;60.65;;;27.25;;
82783;SDS011;72520;55.762;37.780;2024-03-02T04:19:29;66.00;;;28.75;;
82783;SDS011;72520;55.762;37.780;2024-03-02T04:22:34;60.95;;;28.10;;
82783;SDS011;72520;55.762;37.780;2024-03-02T04:25:38;60.40;;;28.90;;
82783;SDS011;72520;55.762;37.780;2024-03-02T04:28:42;65.90;;;31.50;;
82783;SDS011;72520;55.762;37.780;2024-03-02T04:31:46;69.25;;;31.40;;
82783;SDS011;72520;55.762;37.780;2024-03-02T04:34:48;70.55;;;32.40;;
82783;SDS011;72520;55.762;37.780;2024-03-02T04:37:51;62.80;;;30.17;;
82783;SDS011;72520;55.762;37.780;2024-03-02T04:40:54;78.90;;;34.50;;
82783;SDS011;72520;55.762;37.780;2024-03-02T04:43:59;69.13;;;31.95;;
82783;SDS011;72520;55.762;37.780;2024-03-02T04:47:02;67.70;;;30.63;;
82783;SDS011;72520;55.762;37.780;2024-03-02T04:50:05;63.60;;;29.20;;
82783;SDS011;72520;55.762;37.780;2024-03-02T04:53:08;71.88;;;30.65;;
82783;SDS011;72520;55.762;37.780;2024-03-02T04:56:15;56.75;;;27.75;;
82783;SDS011;72520;55.762;37.780;2024-03-02T04:59:40;59.90;;;27.88;;
82783;SDS011;72520;55.762;37.780;2024-03-02T05:02:45;66.72;;;29.23;;
82783;SDS011;72520;55.762;37.780;2024-03-02T05:05:47;68.82;;;30.42;;
82783;SDS011;72520;55.762;37.780;2024-03-02T05:08:50;72.80;;;33.20;;
82783;SDS011;72520;55.762;37.780;2024-03-02T05:11:54;78.60;;;34.53;;
82783;SDS011;72520;55.762;37.780;2024-03-02T05:15:29;90.55;;;41.10;;
82783;SDS011;72520;55.762;37.780;2024-03-02T05:18:32;84.70;;;43.10;;
82783;SDS011;72520;55.762;37.780;2024-03-02T05:21:34;94.15;;;43.10;;
82783;SDS011;72520;55.762;37.780;2024-03-02T05:24:37;84.00;;;38.40;;
82783;SDS011;72520;55.762;37.780;2024-03-02T05:27:40;76.25;;;35.95;;
82783;SDS011;72520;55.762;37.780;2024-03-02T05:30:43;75.70;;;33.38;;
82783;SDS011;72520;55.762;37.780;2024-03-02T05:33:47;71.43;;;35.25;;
82783;SDS011;72520;55.762;37.780;2024-03-02T05:36:51;79.03;;;34.85;;
82783;SDS011;72520;55.762;37.780;2024-03-02T05:39:58;65.65;;;30.55;;
82783;SDS011;72520;55.762;37.780;2024-03-02T05:43:02;75.25;;;32.58;;
82783;SDS011;72520;55.762;37.780;2024-03-02T05:46:04;68.20;;;30.17;;
82783;SDS011;72520;55.762;37.780;2024-03-02T05:49:07;67.70;;;29.92;;
82783;SDS011;72520;55.762;37.780;2024-03-02T05:52:10;69.07;;;30.25;;
82783;SDS011;72520;55.762;37.780;2024-03-02T05:55:18;66.70;;;30.98;;
82783;SDS011;72520;55.762;37.780;2024-03-02T05:58:22;56.78;;;27.02;;
82783;SDS011;72520;55.762;37.780;2024-03-02T06:01:37;57.08;;;26.55;;
82783;SDS011;72520;55.762;37.780;2024-03-02T06:04:40;54.85;;;26.70;;
82783;SDS011;72520;55.762;37.780;2024-03-02T06:07:44;52.28;;;28.25;;
82783;SDS011;72520;55.762;37.780;2024-03-02T06:10:47;58.00;;;25.35;;
82783;SDS011;72520;55.762;37.780;2024-03-02T06:13:50;57.92;;;26.80;;
82783;SDS011;72520;55.762;37.780;2024-03-02T06:16:55;53.38;;;25.67;;
82783;SDS011;72520;55.762;37.780;2024-03-02T06:19:59;63.53;;;26.20;;
82783;SDS011;72520;55.762;37.780;2024-03-02T06:23:03;56.47;;;24.42;;
82783;SDS011;72520;55.762;37.780;2024-03-02T06:26:08;52.40;;;25.77;;
82783;SDS011;72520;55.762;37.780;2024-03-02T06:29:14;64.88;;;27.30;;
82783;SDS011;72520;55.762;37.780;2024-03-02T06:32:17;60.70;;;27.05;;
82783;SDS011;72520;55.762;37.780;2024-03-02T06:35:21;58.42;;;27.45;;
82783;SDS011;72520;55.762;37.780;2024-03-02T06:38:23;62.38;;;26.80;;
82783;SDS011;72520;55.762;37.780;2024-03-02T06:41:26;58.72;;;25.55;;
82783;SDS011;72520;55.762;37.780;2024-03-02T06:44:30;60.55;;;25.58;;
82783;SDS011;72520;55.762;37.780;2024-03-02T06:47:32;60.33;;;26.67;;
82783;SDS011;72520;55.762;37.780;2024-03-02T06:50:34;66.30;;;27.58;;
82783;SDS011;72520;55.762;37.780;2024-03-02T06:53:38;60.50;;;26.42;;
82783;SDS011;72520;55.762;37.780;2024-03-02T06:56:41;63.53;;;28.45;;
82783;SDS011;72520;55.762;37.780;2024-03-02T06:59:45;61.90;;;27.60;;
82783;SDS011;72520;55.762;37.780;2024-03-02T07:02:51;60.75;;;26.50;;
82783;SDS011;72520;55.762;37.780;2024-03-02T07:05:53;62.05;;;27.67;;
82783;SDS011;72520;55.762;37.780;2024-03-02T07:08:57;57.35;;;26.05;;
82783;SDS011;72520;55.762;37.780;2024-03-02T07:11:59;56.15;;;24.80;;
82783;SDS011;72520;55.762;37.780;2024-03-02T07:15:06;55.90;;;25.95;;
82783;SDS011;72520;55.762;37.780;2024-03-02T07:18:25;60.80;;;26.42;;
82783;SDS011;72520;55.762;37.780;2024-03-02T07:24:32;59.55;;;24.42;;
82783;SDS011;72520;55.762;37.780;2024-03-02T07:27:35;61.00;;;26.73;;
82783;SDS011;72520;55.762;37.780;2024-03-02T07:30:39;55.75;;;24.65;;
82783;SDS011;72520;55.762;37.780;2024-03-02T07:33:41;60.10;;;26.15;;
82783;SDS011;72520;55.762;37.780;2024-03-02T07:36:48;54.90;;;24.85;;
82783;SDS011;72520;55.762;37.780;2024-03-02T07:39:50;46.83;;;21.67;;
82783;SDS011;72520;55.762;37.780;2024-03-02T07:42:58;56.05;;;23.83;;
82783;SDS011;72520;55.762;37.780;2024-03-02T07:46:07;62.20;;;26.05;;
82783;SDS011;72520;55.762;37.780;2024-03-02T07:49:09;58.58;;;25.13;;
82783;SDS011;72520;55.762;37.780;2024-03-02T07:52:16;56.88;;;24.95;;
82783;SDS011;72520;55.762;37.780;2024-03-02T07:55:21;55.53;;;24.90;;
82783;SDS011;72520;55.762;37.780;2024-03-02T07:58:24;54.58;;;23.20;;
82783;SDS011;72520;55.762;37.780;2024-03-02T08:01:31;52.95;;;24.60;;
82783;SDS011;72520;55.762;37.780;2024-03-02T08:04:35;56.17;;;25.63;;
82783;SDS011;72520;55.762;37.780;2024-03-02T08:07:37;56.50;;;25.98;;
82783;SDS011;72520;55.762;37.780;2024-03-02T08:10:40;62.05;;;26.08;;
82783;SDS011;72520;55.762;37.780;2024-03-02T08:13:42;63.70;;;26.83;;
82783;SDS011;72520;55.762;37.780;2024-03-02T08:16:46;61.28;;;24.95;;
82783;SDS011;72520;55.762;37.780;2024-03-02T08:19:48;58.35;;;25.55;;
82783;SDS011;72520;55.762;37.780;2024-03-02T08:22:50;52.22;;;24.83;;
82783;SDS011;72520;55.762;37.780;2024-03-02T08:25:55;53.45;;;25.88;;
82783;SDS011;72520;55.762;37.780;2024-03-02T08:28:57;58.72;;;26.23;;
82783;SDS011;72520;55.762;37.780;2024-03-02T08:32:04;57.22;;;26.85;;
82783;SDS011;72520;55.762;37.780;2024-03-02T08:35:07;59.78;;;26.02;;
82783;SDS011;72520;55.762;37.780;2024-03-02T08:38:10;52.17;;;25.50;;
82783;SDS011;72520;55.762;37.780;2024-03-02T08:41:12;53.45;;;25.13;;
82783;SDS011;72520;55.762;37.780;2024-03-02T08:44:16;52.03;;;23.90;;
82783;SDS011;72520;55.762;37.780;2024-03-02T08:47:25;54.10;;;23.27;;
82783;SDS011;72520;55.762;37.780;2024-03-02T08:50:36;54.33;;;23.88;;
82783;SDS011;72520;55.762;37.780;2024-03-02T08:53:39;53.65;;;25.15;;
82783;SDS011;72520;55.762;37.780;2024-03-02T08:56:41;51.78;;;23.38;;
82783;SDS011;72520;55.762;37.780;2024-03-02T08:59:44;54.72;;;22.52;;
82783;SDS011;72520;55.762;37.780;2024-03-02T09:02:48;46.53;;;22.63;;
82783;SDS011;72520;55.762;37.780;2024-03-02T09:05:53;44.50;;;23.00;;
82783;SDS011;72520;55.762;37.780;2024-03-02T09:08:55;49.00;;;22.52;;
82783;SDS011;72520;55.762;37.780;2024-03-02T09:11:57;46.80;;;21.90;;
82783;SDS011;72520;55.762;37.780;2024-03-02T09:15:02;41.05;;;20.08;;
82783;SDS011;72520;55.762;37.780;2024-03-02T09:18:07;40.92;;;19.60;;
82783;SDS011;72520;55.762;37.780;2024-03-02T09:21:12;47.58;;;20.48;;
82783;SDS011;72520;55.762;37.780;2024-03-02T09:24:15;49.33;;;21.27;;
82783;SDS011;72520;55.762;37.780;2024-03-02T09:27:23;41.20;;;19.55;;
82783;SDS011;72520;55.762;37.780;2024-03-02T09:30:27;45.97;;;18.55;;
82783;SDS011;72520;55.762;37.780;2024-03-02T09:33:31;47.13;;;19.60;;
82783;SDS011;72520;55.762;37.780;2024-03-02T09:36:33;42.13;;;18.52;;
82783;SDS011;72520;55.762;37.780;2024-03-02T09:39:36;40.00;;;20.05;;
82783;SDS011;72520;55.762;37.780;2024-03-02T09:42:39;42.50;;;19.13;;
82783;SDS011;72520;55.762;37.780;2024-03-02T09:45:42;43.75;;;19.52;;
82783;SDS011;72520;55.762;37.780;2024-03-02T09:48:46;36.05;;;19.23;;
82783;SDS011;72520;55.762;37.780;2024-03-02T09:51:48;36.25;;;17.77;;
82783;SDS011;72520;55.762;37.780;2024-03-02T09:54:51;41.33;;;18.23;;
82783;SDS011;72520;55.762;37.780;2024-03-02T09:57:53;40.42;;;18.95;;
82783;SDS011;72520;55.762;37.780;2024-03-02T10:00:56;39.22;;;18.55;;
82783;SDS011;72520;55.762;37.780;2024-03-02T10:04:01;38.90;;;17.27;;
82783;SDS011;72520;55.762;37.780;2024-03-02T10:07:11;38.83;;;18.73;;
82783;SDS011;72520;55.762;37.780;2024-03-02T10:10:14;43.92;;;19.60;;
82783;SDS011;72520;55.762;37.780;2024-03-02T10:13:18;36.95;;;18.98;;
82783;SDS011;72520;55.762;37.780;2024-03-02T10:16:20;39.63;;;17.92;;
82783;SDS011;72520;55.762;37.780;2024-03-02T10:19:24;48.15;;;19.17;;
82783;SDS011;72520;55.762;37.780;2024-03-02T10:25:31;45.83;;;17.95;;
82783;SDS011;72520;55.762;37.780;2024-03-02T10:28:36;41.70;;;16.92;;
82783;SDS011;72520;55.762;37.780;2024-03-02T10:31:48;39.55;;;17.63;;
82783;SDS011;72520;55.762;37.780;2024-03-02T10:34:55;44.60;;;18.40;;
82783;SDS011;72520;55.762;37.780;2024-03-02T10:37:58;37.75;;;16.80;;
82783;SDS011;72520;55.762;37.780;2024-03-02T10:41:01;37.70;;;17.63;;
82783;SDS011;72520;55.762;37.780;2024-03-02T10:44:05;41.83;;;19.60;;
82783;SDS011;72520;55.762;37.780;2024-03-02T10:47:08;33.90;;;17.58;;
82783;SDS011;72520;55.762;37.780;2024-03-02T10:50:15;40.42;;;18.83;;
82783;SDS011;72520;55.762;37.780;2024-03-02T10:53:17;46.83;;;18.65;;
82783;SDS011;72520;55.762;37.780;2024-03-02T10:56:21;35.20;;;16.92;;
82783;SDS011;72520;55.762;37.780;2024-03-02T10:59:32;40.55;;;17.85;;
82783;SDS011;72520;55.762;37.780;2024-03-02T11:02:35;41.63;;;18.45;;
82783;SDS011;72520;55.762;37.780;2024-03-02T11:05:43;36.50;;;17.92;;
82783;SDS011;72520;55.762;37.780;2024-03-02T11:08:46;39.22;;;19.25;;
82783;SDS011;72520;55.762;37.780;2024-03-02T11:11:54;44.80;;;19.50;;
82783;SDS011;72520;55.762;37.780;2024-03-02T11:15:03;36.65;;;17.70;;
82783;SDS011;72520;55.762;37.780;2024-03-02T11:18:11;42.28;;;19.25;;
82783;SDS011;72520;55.762;37.780;2024-03-02T11:21:15;45.83;;;18.85;;
82783;SDS011;72520;55.762;37.780;2024-03-02T11:24:31;41.65;;;18.52;;
82783;SDS011;72520;55.762;37.780;2024-03-02T11:31:09;40.13;;;17.90;;
82783;SDS011;72520;55.762;37.780;2024-03-02T11:34:20;40.63;;;17.20;;
82783;SDS011;72520;55.762;37.780;2024-03-02T11:37:32;37.33;;;17.77;;
82783;SDS011;72520;55.762;37.780;2024-03-02T11:43:37;36.38;;;17.40;;
82783;SDS011;72520;55.762;37.780;2024-03-02T11:46:40;42.10;;;17.00;;
82783;SDS011;72520;55.762;37.780;2024-03-02T11:49:44;37.90;;;17.20;;
82783;SDS011;72520;55.762;37.780;2024-03-02T11:52:50;38.38;;;17.63;;
82783;SDS011;72520;55.762;37.780;2024-03-02T11:55:53;36.55;;;17.75;;
82783;SDS011;72520;55.762;37.780;2024-03-02T11:58:57;40.85;;;17.00;;
82783;SDS011;72520;55.762;37.780;2024-03-02T12:02:01;33.97;;;16.48;;
82783;SDS011;72520;55.762;37.780;2024-03-02T12:05:04;54.47;;;26.55;;
82783;SDS011;72520;55.762;37.780;2024-03-02T12:08:10;43.78;;;18.13;;
82783;SDS011;72520;55.762;37.780;2024-03-02T12:11:16;34.45;;;17.88;;
82783;SDS011;72520;55.762;37.780;2024-03-02T12:14:19;35.80;;;17.13;;
82783;SDS011;72520;55.762;37.780;2024-03-02T12:17:21;34.70;;;16.05;;
82783;SDS011;72520;55.762;37.780;2024-03-02T12:20:26;36.22;;;17.08;;
82783;SDS011;72520;55.762;37.780;2024-03-02T12:23:38;34.08;;;15.15;;
82783;SDS011;72520;55.762;37.780;2024-03-02T12:26:40;34.13;;;16.60;;
82783;SDS011;72520;55.762;37.780;2024-03-02T12:29:43;37.17;;;15.32;;
82783;SDS011;72520;55.762;37.780;2024-03-02T12:32:45;32.53;;;16.23;;
82783;SDS011;72520;55.762;37.780;2024-03-02T12:35:49;32.40;;;14.57;;
82783;SDS011;72520;55.762;37.780;2024-03-02T12:38:53;29.17;;;14.18;;
82783;SDS011;72520;55.762;37.780;2024-03-02T12:41:57;40.45;;;16.75;;
82783;SDS011;72520;55.762;37.780;2024-03-02T12:45:02;41.08;;;18.20;;
82783;SDS011;72520;55.762;37.780;2024-03-02T12:48:05;40.53;;;20.33;;
82783;SDS011;72520;55.762;37.780;2024-03-02T12:51:08;42.40;;;17.00;;
82783;SDS011;72520;55.762;37.780;2024-03-02T12:54:14;32.30;;;16.05;;
82783;SDS011;72520;55.762;37.780;2024-03-02T12:57:19;33.08;;;16.15;;
82783;SDS011;72520;55.762;37.780;2024-03-02T13:00:21;30.92;;;14.65;;
82783;SDS011;72520;55.762;37.780;2024-03-02T13:03:24;31.23;;;14.38;;
82783;SDS011;72520;55.762;37.780;2024-03-02T13:06:36;32.25;;;14.50;;
82783;SDS011;72520;55.762;37.780;2024-03-02T13:09:40;39.60;;;19.77;;
82783;SDS011;72520;55.762;37.780;2024-03-02T13:12:42;42.63;;;18.35;;
82783;SDS011;72520;55.762;37.780;2024-03-02T13:15:47;27.45;;;13.85;;
82783;SDS011;72520;55.762;37.780;2024-03-02T13:18:52;35.85;;;13.55;;
82783;SDS011;72520;55.762;37.780;2024-03-02T13:22:03;28.63;;;13.43;;
82783;SDS011;72520;55.762;37.780;2024-03-02T13:25:07;33.70;;;15.43;;
82783;SDS011;72520;55.762;37.780;2024-03-02T13:28:11;32.85;;;15.02;;
82783;SDS011;72520;55.762;37.780;2024-03-02T13:31:13;28.75;;;12.85;;
82783;SDS011;72520;55.762;37.780;2024-03-02T13:34:15;32.88;;;13.18;;
82783;SDS011;72520;55.762;37.780;2024-03-02T13:37:18;30.80;;;13.60;;
82783;SDS011;72520;55.762;37.780;2024-03-02T13:40:21;32.38;;;13.85;;
82783;SDS011;72520;55.762;37.780;2024-03-02T13:43:26;29.30;;;14.18;;
82783;SDS011;72520;55.762;37.780;2024-03-02T13:46:33;29.05;;;14.55;;
82783;SDS011;72520;55.762;37.780;2024-03-02T13:49:38;31.27;;;16.20;;
82783;SDS011;72520;55.762;37.780;2024-03-02T13:52:45;41.45;;;19.33;;
82783;SDS011;72520;55.762;37.780;2024-03-02T13:55:48;40.35;;;20.67;;
82783;SDS011;72520;55.762;37.780;2024-03-02T13:58:51;36.05;;;16.23;;
82783;SDS011;72520;55.762;37.780;2024-03-02T14:01:56;50.88;;;22.08;;
82783;SDS011;72520;55.762;37.780;2024-03-02T14:04:59;37.90;;;15.00;;
82783;SDS011;72520;55.762;37.780;2024-03-02T14:08:01;38.33;;;18.30;;
82783;SDS011;72520;55.762;37.780;2024-03-02T14:11:05;35.63;;;18.67;;
82783;SDS011;72520;55.762;37.780;2024-03-02T14:14:09;31.42;;;13.90;;
82783;SDS011;72520;55.762;37.780;2024-03-02T14:17:14;39.10;;;19.38;;
82783;SDS011;72520;55.762;37.780;2024-03-02T14:23:22;32.53;;;14.43;;
82783;SDS011;72520;55.762;37.780;2024-03-02T14:26:28;28.83;;;14.35;;
82783;SDS011;72520;55.762;37.780;2024-03-02T14:29:31;30.73;;;14.43;;
82783;SDS011;72520;55.762;37.780;2024-03-02T14:32:37;32.10;;;15.93;;
82783;SDS011;72520;55.762;37.780;2024-03-02T14:35:40;30.75;;;13.25;;
82783;SDS011;72520;55.762;37.780;2024-03-02T14:38:45;38.33;;;15.70;;
82783;SDS011;72520;55.762;37.780;2024-03-02T14:41:51;30.83;;;14.45;;
82783;SDS011;72520;55.762;37.780;2024-03-02T14:45:02;26.92;;;14.65;;
82783;SDS011;72520;55.762;37.780;2024-03-02T14:48:05;35.67;;;16.30;;
82783;SDS011;72520;55.762;37.780;2024-03-02T14:51:11;27.52;;;14.18;;
82783;SDS011;72520;55.762;37.780;2024-03-02T14:54:16;33.10;;;15.00;;
82783;SDS011;72520;55.762;37.780;2024-03-02T14:57:23;30.13;;;14.68;;
82783;SDS011;72520;55.762;37.780;2024-03-02T15:00:26;28.45;;;13.75;;
82783;SDS011;72520;55.762;37.780;2024-03-02T15:03:28;31.52;;;15.38;;
82783;SDS011;72520;55.762;37.780;2024-03-02T15:06:33;35.58;;;15.35;;
82783;SDS011;72520;55.762;37.780;2024-03-02T15:12:57;31.50;;;15.45;;
82783;SDS011;72520;55.762;37.780;2024-03-02T15:16:10;41.95;;;19.75;;
82783;SDS011;72520;55.762;37.780;2024-03-02T15:19:38;38.40;;;17.10;;
82783;SDS011;72520;55.762;37.780;2024-03-02T15:22:41;32.40;;;15.63;;
82783;SDS011;72520;55.762;37.780;2024-03-02T15:25:43;32.00;;;15.52;;
82783;SDS011;72520;55.762;37.780;2024-03-02T15:28:49;37.65;;;19.95;;
82783;SDS011;72520;55.762;37.780;2024-03-02T15:31:51;36.75;;;16.30;;
82783;SDS011;72520;55.762;37.780;2024-03-02T15:34:56;36.05;;;18.67;;
82783;SDS011;72520;55.762;37.780;2024-03-02T15:38:13;36.20;;;16.08;;
82783;SDS011;72520;55.762;37.780;2024-03-02T15:41:17;31.92;;;15.77;;
82783;SDS011;72520;55.762;37.780;2024-03-02T15:44:20;35.35;;;15.85;;
82783;SDS011;72520;55.762;37.780;2024-03-02T15:47:26;33.60;;;15.75;;
82783;SDS011;72520;55.762;37.780;2024-03-02T15:50:29;31.83;;;16.83;;
82783;SDS011;72520;55.762;37.780;2024-03-02T15:53:36;40.08;;;17.67;;
82783;SDS011;72520;55.762;37.780;2024-03-02T15:56:41;43.05;;;19.02;;
82783;SDS011;72520;55.762;37.780;2024-03-02T15:59:47;32.50;;;16.92;;
82783;SDS011;72520;55.762;37.780;2024-03-02T16:02:50;32.70;;;15.65;;
82783;SDS011;72520;55.762;37.780;2024-03-02T16:05:54;32.45;;;15.80;;
82783;SDS011;72520;55.762;37.780;2024-03-02T16:08:56;31.33;;;16.30;;
82783;SDS011;72520;55.762;37.780;2024-03-02T16:12:00;34.47;;;15.85;;
82783;SDS011;72520;55.762;37.780;2024-03-02T16:15:07;30.02;;;14.52;;
82783;SDS011;72520;55.762;37.780;2024-03-02T16:18:11;36.10;;;16.90;;
82783;SDS011;72520;55.762;37.780;2024-03-02T16:21:13;32.33;;;17.13;;
82783;SDS011;72520;55.762;37.780;2024-03-02T16:24:15;27.05;;;15.52;;
82783;SDS011;72520;55.762;37.780;2024-03-02T16:27:21;27.00;;;15.25;;
82783;SDS011;72520;55.762;37.780;2024-03-02T16:30:24;30.52;;;14.68;;
82783;SDS011;72520;55.762;37.780;2024-03-02T16:33:27;23.50;;;13.60;;
82783;SDS011;72520;55.762;37.780;2024-03-02T16:36:29;28.33;;;14.60;;
82783;SDS011;72520;55.762;37.780;2024-03-02T16:39:35;29.73;;;15.20;;
82783;SDS011;72520;55.762;37.780;2024-03-02T16:42:37;32.45;;;14.82;;
82783;SDS011;72520;55.762;37.780;2024-03-02T16:45:40;28.13;;;14.27;;
82783;SDS011;72520;55.762;37.780;2024-03-02T16:48:46;34.13;;;15.93;;
82783;SDS011;72520;55.762;37.780;2024-03-02T16:51:48;35.50;;;16.10;;
82783;SDS011;72520;55.762;37.780;2024-03-02T16:54:50;29.75;;;16.17;;
82783;SDS011;72520;55.762;37.780;2024-03-02T16:57:53;28.50;;;15.52;;
82783;SDS011;72520;55.762;37.780;2024-03-02T17:00:58;33.78;;;16.45;;
82783;SDS011;72520;55.762;37.780;2024-03-02T17:04:04;32.00;;;16.70;;
82783;SDS011;72520;55.762;37.780;2024-03-02T17:07:06;51.65;;;26.90;;
82783;SDS011;72520;55.762;37.780;2024-03-02T17:10:11;33.17;;;15.82;;
82783;SDS011;72520;55.762;37.780;2024-03-02T17:13:14;34.50;;;15.43;;
82783;SDS011;72520;55.762;37.780;2024-03-02T17:16:18;32.15;;;16.13;;
82783;SDS011;72520;55.762;37.780;2024-03-02T17:19:20;35.50;;;17.13;;
82783;SDS011;72520;55.762;37.780;2024-03-02T17:22:23;33.58;;;17.83;;
82783;SDS011;72520;55.762;37.780;2024-03-02T17:25:26;29.42;;;14.43;;
82783;SDS011;72520;55.762;37.780;2024-03-02T17:28:28;31.50;;;14.75;;
82783;SDS011;72520;55.762;37.780;2024-03-02T17:31:32;29.15;;;14.60;;
82783;SDS011;72520;55.762;37.780;2024-03-02T17:34:37;30.92;;;15.60;;
82783;SDS011;72520;55.762;37.780;2024-03-02T17:37:40;31.17;;;15.52;;
82783;SDS011;72520;55.762;37.780;2024-03-02T17:40:42;32.55;;;15.20;;
82783;SDS011;72520;55.762;37.780;2024-03-02T17:43:45;30.38;;;14.95;;
82783;SDS011;72520;55.762;37.780;2024-03-02T17:46:50;39.83;;;16.25;;
82783;SDS011;72520;55.762;37.780;2024-03-02T17:49:53;35.33;;;15.60;;
82783;SDS011;72520;55.762;37.780;2024-03-02T17:52:55;35.05;;;15.90;;
82783;SDS011;72520;55.762;37.780;2024-03-02T17:56:01;32.45;;;14.60;;
82783;SDS011;72520;55.762;37.780;2024-03-02T17:59:03;35.97;;;19.42;;
82783;SDS011;72520;55.762;37.780;2024-03-02T18:02:07;35.13;;;16.30;;
82783;SDS011;72520;55.762;37.780;2024-03-02T18:05:12;31.98;;;14.95;;